Time;durP1;ratioP1;P1;durP2;ratioP2;P2;SDS_P1;SDS_P2;PMS_P1;PMS_P2;Temp;Humidity;BMP_temperature;BMP_pressure;BME280_temperature;BME280_humidity;BME280_pressure;Samples;Min_cycle;Max_cycle;Signal;HPM_P1;HPM_P2
2024/03/12 00:00:43;;;;;;;;;;;;;;;;;;137800;1271;22502;-78
2024/03/12 00:04:04;;;;;;;;;;;;;;;;;;137850;1270;22531;-78
2024/03/12 00:07:06;;;;;;;;;;;;;;;;;;137817;1270;22530;-77
2024/03/12 00:10:09;;;;;;;;;;;;;;;;;;137800;1270;22508;-77
2024/03/12 00:13:10;;;;;;;;;;;;;;;;;;137689;1270;22570;-77
2024/03/12 00:16:11;;;;;;;;;;;;;;;;;;137778;1270;24972;-77
2024/03/12 00:19:12;;;;;;;;;;;;;;;;;;137794;1271;22549;-77
2024/03/12 00:22:13;;;;;;;;;;;;;;;;;;137847;1271;22544;-77
2024/03/12 00:25:15;;;;;;;;;;;;;;;;;;137843;1270;22977;-76
2024/03/12 00:28:16;;;;;;;;;;;;;;;;;;137814;1270;22520;-77
2024/03/12 00:31:17;;;;;;;;;;;;;;;;;;137779;1271;22555;-78
2024/03/12 00:34:20;;;;;;;;;;;;;;;;;;137834;1270;22555;-77
2024/03/12 00:37:21;;;;;;;;;;;;;;;;;;137923;1270;22336;-77
2024/03/12 00:40:22;;;;;;;;;;;;;;;;;;137896;1270;22518;-76
2024/03/12 00:43:24;;;;;;;;;;;;;;;;;;137719;1270;22502;-77
2024/03/12 00:46:25;;;;;;;;;;;;;;;;;;137743;1270;22527;-76
2024/03/12 00:49:27;;;;;;;;;;;;;;;;;;137827;1270;22515;-77
2024/03/12 00:52:28;;;;;;;;;;;;;;;;;;137800;1270;23067;-77
2024/03/12 00:55:29;;;;;;;;;;;;;;;;;;137870;1270;22517;-77
2024/03/12 00:58:33;;;;;;;;;;;;;;;;;;137834;1270;22902;-76
2024/03/12 01:01:34;;;;;;;;;;;;;;;;;;137887;1270;22323;-76
2024/03/12 01:04:39;;;;;;;;;;;;;;;;;;137696;1270;22541;-77
2024/03/12 01:07:40;;;;;;;;;;;;;;;;;;137853;1270;22495;-80
2024/03/12 01:10:45;;;;;;;;;;;;;;;;;;137818;1270;22500;-79
2024/03/12 01:13:49;;;;;;;;;;;;;;;;;;137810;1270;22968;-79
2024/03/12 01:16:50;;;;;;;;;;;;;;;;;;137927;1270;22299;-79
2024/03/12 01:19:51;;;;;;;;;;;;;;;;;;137801;1270;22544;-79
2024/03/12 01:22:53;;;;;;;;;;;;;;;;;;137740;1270;24232;-79
2024/03/12 01:25:55;;;;;;;;;;;;;;;;;;137877;1270;23178;-79
2024/03/12 01:28:56;;;;;;;;;;;;;;;;;;137883;1270;22309;-82
2024/03/12 01:31:57;;;;;;;;;;;;;;;;;;137741;1270;22498;-79
2024/03/12 02:09:47;;;;;;;;;;;;;;;;;;132845;1310;544383;-78
2024/03/12 02:12:48;;;;;;;;;;;;;;;;;;136305;1285;22504;-78
2024/03/12 02:15:49;;;;;;;;;;;;;;;;;;137226;1277;22477;-78
2024/03/12 02:18:51;;;;;;;;;;;;;;;;;;136982;1277;22514;-78
2024/03/12 02:21:52;;;;;;;;;;;;;;;;;;136558;1274;167055;-78
2024/03/12 02:24:53;;;;;;;;;;;;;;;;;;136918;1274;22535;-78
2024/03/12 02:27:56;;;;;;;;;;;;;;;;;;137492;1274;22569;-79
2024/03/12 02:30:57;;;;;;;;;;;;;;;;;;136819;1274;24980;-78
2024/03/12 02:33:58;;;;;;;;;;;;;;;;;;136751;1272;22509;-78
2024/03/12 02:37:01;;;;;;;;;;;;;;;;;;137334;1274;22519;-78
2024/03/12 02:40:04;;;;;;;;;;;;;;;;;;136763;1274;23063;-79
2024/03/12 02:43:05;;;;;;;;;;;;;;;;;;136884;1274;22565;-79
2024/03/12 02:46:08;;;;;;;;;;;;;;;;;;137010;1274;22513;-79
2024/03/12 02:49:10;;;;;;;;;;;;;;;;;;137116;1275;22951;-78
2024/03/12 02:52:11;;;;;;;;;;;;;;;;;;136712;1275;22496;-79
2024/03/12 02:55:12;;;;;;;;;;;;;;;;;;136891;1275;22537;-78
2024/03/12 02:58:13;;;;;;;;;;;;;;;;;;137410;1274;22569;-79
2024/03/12 03:01:17;;;;;;;;;;;;;;;;;;136842;1274;22887;-79
2024/03/12 03:04:18;;;;;;;;;;;;;;;;;;136819;1275;23189;-78
2024/03/12 03:07:19;;;;;;;;;;;;;;;;;;137308;1273;22540;-78
2024/03/12 03:10:21;;;;;;;;;;;;;;;;;;136859;1273;22532;-79
2024/03/12 03:13:22;;;;;;;;;;;;;;;;;;136942;1273;22500;-81
2024/03/12 03:16:23;;;;;;;;;;;;;;;;;;137310;1273;22437;-80
2024/03/12 03:19:24;;;;;;;;;;;;;;;;;;137106;1273;22528;-81
2024/03/12 03:22:25;;;;;;;;;;;;;;;;;;136872;1274;22537;-80
2024/03/12 03:25:27;;;;;;;;;;;;;;;;;;137112;1274;22521;-81
2024/03/12 03:28:28;;;;;;;;;;;;;;;;;;137203;1274;22498;-81
2024/03/12 03:31:29;;;;;;;;;;;;;;;;;;137013;1274;22515;-81
2024/03/12 03:34:31;;;;;;;;;;;;;;;;;;136921;1274;22516;-80
2024/03/12 03:37:35;;;;;;;;;;;;;;;;;;137481;1270;22569;-80
2024/03/12 03:40:36;;;;;;;;;;;;;;;;;;136866;1274;23112;-81
2024/03/12 03:43:37;;;;;;;;;;;;;;;;;;136990;1267;22548;-81
2024/03/12 03:46:38;;;;;;;;;;;;;;;;;;137532;1273;23543;-76
2024/03/12 03:49:39;;;;;;;;;;;;;;;;;;136769;1274;22507;-76
2024/03/12 03:52:41;;;;;;;;;;;;;;;;;;136940;1274;22497;-79
2024/03/12 03:55:42;;;;;;;;;;;;;;;;;;137431;1274;22578;-81
2024/03/12 03:58:43;;;;;;;;;;;;;;;;;;137181;1273;22505;-79
2024/03/12 04:01:44;;;;;;;;;;;;;;;;;;136863;1267;22476;-79
2024/03/12 04:04:45;;;;;;;;;;;;;;;;;;137555;1273;22319;-79
2024/03/12 04:07:47;;;;;;;;;;;;;;;;;;137309;1270;22620;-78
2024/03/12 04:10:48;;;;;;;;;;;;;;;;;;136952;1274;22547;-79
2024/03/12 04:13:50;;;;;;;;;;;;;;;;;;137069;1273;23435;-79
2024/03/12 04:16:51;;;;;;;;;;;;;;;;;;137660;1273;22323;-79
2024/03/12 04:19:52;;;;;;;;;;;;;;;;;;137214;1271;22511;-79
2024/03/12 04:22:54;;;;;;;;;;;;;;;;;;137138;1271;22525;-79
2024/03/12 04:25:55;;;;;;;;;;;;;;;;;;137800;1271;22309;-79
2024/03/12 04:28:57;;;;;;;;;;;;;;;;;;137153;1271;22511;-80
2024/03/12 04:31:58;;;;;;;;;;;;;;;;;;137291;1271;22537;-79
2024/03/12 04:34:59;;;;;;;;;;;;;;;;;;137548;1271;22566;-79
2024/03/12 04:38:02;;;;;;;;;;;;;;;;;;137514;1271;22496;-79
2024/03/12 04:41:03;;;;;;;;;;;;;;;;;;137215;1271;22555;-79
2024/03/12 04:44:04;;;;;;;;;;;;;;;;;;137528;1271;22609;-80
2024/03/12 04:47:05;;;;;;;;;;;;;;;;;;137119;1271;22679;-79
2024/03/12 04:50:07;;;;;;;;;;;;;;;;;;137312;1271;22516;-78
2024/03/12 04:53:12;;;;;;;;;;;;;;;;;;137176;1271;22525;-78
2024/03/12 04:56:16;;;;;;;;;;;;;;;;;;137288;1271;22929;-78
2024/03/12 04:59:18;;;;;;;;;;;;;;;;;;137121;1271;25198;-78
2024/03/12 05:02:19;;;;;;;;;;;;;;;;;;137352;1271;22490;-81
2024/03/12 05:05:21;;;;;;;;;;;;;;;;;;137762;1271;22271;-79
2024/03/12 05:08:22;;;;;;;;;;;;;;;;;;137809;1271;22851;-78
2024/03/12 05:11:24;;;;;;;;;;;;;;;;;;137734;1271;22270;-78
2024/03/12 05:14:25;;;;;;;;;;;;;;;;;;137724;1271;22311;-78
2024/03/12 05:17:26;;;;;;;;;;;;;;;;;;137723;1271;22271;-78
2024/03/12 05:20:29;;;;;;;;;;;;;;;;;;137093;1271;22513;-78
2024/03/12 05:23:30;;;;;;;;;;;;;;;;;;137788;1271;22489;-81
2024/03/12 05:26:32;;;;;;;;;;;;;;;;;;137703;1271;22305;-78
2024/03/12 05:29:36;;;;;;;;;;;;;;;;;;137788;1271;22275;-78
2024/03/12 05:32:37;;;;;;;;;;;;;;;;;;137208;1271;22480;-81
2024/03/12 05:35:40;;;;;;;;;;;;;;;;;;137714;1267;22278;-79
2024/03/12 05:38:54;;;;;;;;;;;;;;;;;;137695;1271;22479;-79
2024/03/12 05:48:34;;;;;;;;;;;;;;;;;;137721;1271;22349;-77
2024/03/12 05:51:37;;;;;;;;;;;;;;;;;;137692;1271;22277;-82
2024/03/12 05:54:40;;;;;;;;;;;;;;;;;;137703;1265;22403;-82
2024/03/12 05:57:41;;;;;;;;;;;;;;;;;;137751;1271;22303;-80
2024/03/12 06:00:48;;;;;;;;;;;;;;;;;;137711;1271;22315;-82
2024/03/12 06:03:50;;;;;;;;;;;;;;;;;;137709;1271;22305;-77
2024/03/12 06:06:51;;;;;;;;;;;;;;;;;;137716;1271;22369;-78
2024/03/12 06:09:52;;;;;;;;;;;;;;;;;;137774;1267;22304;-80
2024/03/12 06:12:53;;;;;;;;;;;;;;;;;;137697;1271;22779;-81
2024/03/12 06:15:54;;;;;;;;;;;;;;;;;;137719;1271;22323;-80
2024/03/12 06:18:57;;;;;;;;;;;;;;;;;;137618;1267;22511;-79
2024/03/12 06:21:58;;;;;;;;;;;;;;;;;;137760;1271;22286;-81
2024/03/12 06:25:00;;;;;;;;;;;;;;;;;;137732;1262;22286;-81
2024/03/12 06:28:05;;;;;;;;;;;;;;;;;;137744;1271;22407;-80
2024/03/12 06:31:06;;;;;;;;;;;;;;;;;;137728;1271;22817;-79
2024/03/12 06:34:08;;;;;;;;;;;;;;;;;;137677;1271;22520;-79
2024/03/12 06:37:09;;;;;;;;;;;;;;;;;;137744;1271;22367;-79
2024/03/12 06:40:12;;;;;;;;;;;;;;;;;;137728;1271;22865;-79
2024/03/12 06:43:15;;;;;;;;;;;;;;;;;;137728;1271;22438;-79
2024/03/12 06:46:19;;;;;;;;;;;;;;;;;;137765;1271;22309;-78
2024/03/12 06:49:21;;;;;;;;;;;;;;;;;;137732;1271;22823;-78
2024/03/12 06:52:22;;;;;;;;;;;;;;;;;;137752;1271;22343;-79
2024/03/12 06:55:24;;;;;;;;;;;;;;;;;;137733;1271;22730;-79
2024/03/12 06:58:27;;;;;;;;;;;;;;;;;;137774;1271;22352;-78
2024/03/12 07:01:31;;;;;;;;;;;;;;;;;;137720;1271;22280;-79
2024/03/12 07:04:35;;;;;;;;;;;;;;;;;;137721;1271;22293;-80
2024/03/12 07:07:36;;;;;;;;;;;;;;;;;;137732;1271;22386;-79
2024/03/12 07:10:40;;;;;;;;;;;;;;;;;;137730;1271;22412;-78
2024/03/12 07:13:43;;;;;;;;;;;;;;;;;;137776;1271;22283;-79
2024/03/12 07:16:44;;;;;;;;;;;;;;;;;;137794;1271;22338;-79
2024/03/12 07:19:47;;;;;;;;;;;;;;;;;;137775;1271;22753;-79
2024/03/12 07:22:48;;;;;;;;;;;;;;;;;;137773;1271;22368;-79
2024/03/12 07:25:50;;;;;;;;;;;;;;;;;;137727;1271;22298;-79
2024/03/12 07:28:51;;;;;;;;;;;;;;;;;;137745;1271;22330;-79
2024/03/12 07:31:52;;;;;;;;;;;;;;;;;;137693;1271;23254;-79
2024/03/12 07:34:53;;;;;;;;;;;;;;;;;;137789;1267;22306;-79
2024/03/12 07:37:54;;;;;;;;;;;;;;;;;;137530;1271;22537;-78
2024/03/12 07:40:55;;;;;;;;;;;;;;;;;;137390;1263;22973;-78
2024/03/12 07:43:56;;;;;;;;;;;;;;;;;;137116;1271;22532;-78
2024/03/12 07:46:58;;;;;;;;;;;;;;;;;;136989;1271;22574;-78
2024/03/12 07:49:59;;;;;;;;;;;;;;;;;;137780;1271;22692;-78
2024/03/12 07:53:05;;;;;;;;;;;;;;;;;;137796;1266;22803;-78
2024/03/12 07:56:06;;;;;;;;;;;;;;;;;;137805;1271;22281;-78
2024/03/12 07:59:08;;;;;;;;;;;;;;;;;;137787;1271;22337;-77
2024/03/12 08:02:11;;;;;;;;;;;;;;;;;;137795;1271;22681;-78
2024/03/12 08:05:12;;;;;;;;;;;;;;;;;;137722;1271;22287;-78
2024/03/12 08:08:13;;;;;;;;;;;;;;;;;;137734;1271;22454;-78
2024/03/12 08:11:15;;;;;;;;;;;;;;;;;;137684;1271;22336;-78
2024/03/12 08:14:17;;;;;;;;;;;;;;;;;;137786;1271;22336;-78
2024/03/12 08:17:19;;;;;;;;;;;;;;;;;;137597;1271;22539;-78
2024/03/12 08:20:20;;;;;;;;;;;;;;;;;;137667;1271;22478;-79
2024/03/12 08:23:23;;;;;;;;;;;;;;;;;;137314;1267;22521;-79
2024/03/12 08:26:26;;;;;;;;;;;;;;;;;;137810;1271;23018;-78
2024/03/12 08:29:27;;;;;;;;;;;;;;;;;;137793;1271;22345;-77
2024/03/12 08:32:29;;;;;;;;;;;;;;;;;;137774;1271;22309;-77
2024/03/12 08:35:31;;;;;;;;;;;;;;;;;;137730;1271;22319;-78
2024/03/12 08:38:32;;;;;;;;;;;;;;;;;;137764;1271;22366;-77
2024/03/12 08:41:33;;;;;;;;;;;;;;;;;;137735;1271;23037;-77
2024/03/12 08:44:34;;;;;;;;;;;;;;;;;;137709;1271;22312;-77
2024/03/12 08:47:35;;;;;;;;;;;;;;;;;;137722;1271;22323;-77
2024/03/12 08:50:37;;;;;;;;;;;;;;;;;;137725;1271;22335;-77
2024/03/12 08:53:39;;;;;;;;;;;;;;;;;;137744;1271;22345;-77
2024/03/12 08:56:40;;;;;;;;;;;;;;;;;;137713;1271;22316;-77
2024/03/12 08:59:42;;;;;;;;;;;;;;;;;;137717;1271;22320;-81
2024/03/12 09:02:43;;;;;;;;;;;;;;;;;;137662;1271;22715;-80
2024/03/12 09:05:44;;;;;;;;;;;;;;;;;;137687;1271;22343;-80
2024/03/12 09:08:45;;;;;;;;;;;;;;;;;;137647;1271;22418;-81
2024/03/12 09:11:46;;;;;;;;;;;;;;;;;;137691;1271;22354;-82
2024/03/12 09:14:47;;;;;;;;;;;;;;;;;;137714;1271;22308;-79
2024/03/12 09:17:48;;;;;;;;;;;;;;;;;;137662;1271;22360;-80
2024/03/12 09:20:49;;;;;;;;;;;;;;;;;;137674;1271;22298;-81
2024/03/12 09:23:51;;;;;;;;;;;;;;;;;;137682;1271;22340;-80
2024/03/12 09:26:53;;;;;;;;;;;;;;;;;;137723;1271;22270;-79
2024/03/12 09:29:56;;;;;;;;;;;;;;;;;;137625;1271;22358;-78
2024/03/12 09:32:57;;;;;;;;;;;;;;;;;;137723;1271;22286;-78
2024/03/12 09:35:58;;;;;;;;;;;;;;;;;;137746;1271;22521;-80
2024/03/12 09:39:00;;;;;;;;;;;;;;;;;;137741;1271;22393;-81
2024/03/12 09:42:01;;;;;;;;;;;;;;;;;;137755;1259;22259;-80
2024/03/12 09:45:06;;;;;;;;;;;;;;;;;;137797;1265;22320;-79
2024/03/12 09:48:10;;;;;;;;;;;;;;;;;;137754;1271;22733;-80
2024/03/12 09:51:12;;;;;;;;;;;;;;;;;;137792;1271;22285;-80
2024/03/12 09:54:13;;;;;;;;;;;;;;;;;;137770;1271;22362;-80
2024/03/12 09:57:14;;;;;;;;;;;;;;;;;;137788;1271;22362;-80
2024/03/12 10:00:18;;;;;;;;;;;;;;;;;;137808;1271;22945;-80
2024/03/12 10:03:24;;;;;;;;;;;;;;;;;;137774;1260;22283;-82
2024/03/12 10:06:28;;;;;;;;;;;;;;;;;;137741;1271;22316;-80
2024/03/12 10:09:29;;;;;;;;;;;;;;;;;;137702;1271;22991;-80
2024/03/12 10:12:30;;;;;;;;;;;;;;;;;;137787;1271;22347;-81
2024/03/12 10:15:32;;;;;;;;;;;;;;;;;;137826;1271;22321;-81
2024/03/12 10:18:34;;;;;;;;;;;;;;;;;;137737;1271;22475;-80
2024/03/12 10:21:36;;;;;;;;;;;;;;;;;;137756;1271;22368;-80
2024/03/12 10:24:37;;;;;;;;;;;;;;;;;;137825;1271;22746;-81
2024/03/12 10:27:40;;;;;;;;;;;;;;;;;;137783;1271;22406;-81
2024/03/12 10:30:41;;;;;;;;;;;;;;;;;;137774;1271;22756;-81
2024/03/12 10:33:47;;;;;;;;;;;;;;;;;;137744;1265;22317;-81
2024/03/12 10:36:49;;;;;;;;;;;;;;;;;;137776;1271;23002;-79
2024/03/12 10:39:51;;;;;;;;;;;;;;;;;;137761;1271;22358;-80
2024/03/12 10:42:52;;;;;;;;;;;;;;;;;;137703;1271;22314;-80
2024/03/12 10:45:54;;;;;;;;;;;;;;;;;;137740;1263;22325;-73
2024/03/12 10:48:55;;;;;;;;;;;;;;;;;;137809;1263;22547;-81
2024/03/12 10:51:56;;;;;;;;;;;;;;;;;;137852;1266;22307;-81
2024/03/12 10:54:58;;;;;;;;;;;;;;;;;;137810;1271;22359;-81
2024/03/12 10:58:00;;;;;;;;;;;;;;;;;;137780;1271;22467;-80
2024/03/12 11:01:01;;;;;;;;;;;;;;;;;;137865;1271;22353;-81
2024/03/12 11:04:03;;;;;;;;;;;;;;;;;;138001;1271;22332;-81
2024/03/12 11:07:05;;;;;;;;;;;;;;;;;;137885;1271;22398;-83
2024/03/12 11:10:09;;;;;;;;;;;;;;;;;;137808;1271;22275;-83
2024/03/12 11:13:13;;;;;;;;;;;;;;;;;;137734;1271;22338;-83
2024/03/12 11:16:17;;;;;;;;;;;;;;;;;;137858;1271;22293;-85
2024/03/12 11:19:20;;;;;;;;;;;;;;;;;;137810;1271;22386;-82
2024/03/12 11:22:22;;;;;;;;;;;;;;;;;;137784;1271;22357;-83
2024/03/12 11:25:23;;;;;;;;;;;;;;;;;;137751;1271;22309;-81
2024/03/12 11:28:24;;;;;;;;;;;;;;;;;;137694;1271;22352;-82
2024/03/12 11:31:27;;;;;;;;;;;;;;;;;;137813;1267;22321;-83
2024/03/12 11:34:28;;;;;;;;;;;;;;;;;;137763;1271;22321;-84
2024/03/12 11:37:30;;;;;;;;;;;;;;;;;;137657;1271;22411;-83
2024/03/12 11:40:31;;;;;;;;;;;;;;;;;;137668;1271;22440;-83
2024/03/12 11:43:32;;;;;;;;;;;;;;;;;;137789;1271;22419;-82
2024/03/12 11:46:35;;;;;;;;;;;;;;;;;;137780;1271;22316;-82
2024/03/12 11:49:37;;;;;;;;;;;;;;;;;;137819;1271;23175;-85
2024/03/12 11:52:38;;;;;;;;;;;;;;;;;;137819;1271;22388;-83
2024/03/12 11:55:39;;;;;;;;;;;;;;;;;;137803;1271;22334;-82
2024/03/12 11:58:44;;;;;;;;;;;;;;;;;;137752;1271;22299;-86
2024/03/12 12:01:45;;;;;;;;;;;;;;;;;;137803;1257;22446;-84
2024/03/12 12:04:51;;;;;;;;;;;;;;;;;;137785;1271;22745;-84
2024/03/12 12:07:52;;;;;;;;;;;;;;;;;;137789;1271;22423;-83
2024/03/12 12:10:54;;;;;;;;;;;;;;;;;;137750;1271;22353;-85
2024/03/12 12:13:56;;;;;;;;;;;;;;;;;;137773;1271;22363;-85
2024/03/12 12:16:58;;;;;;;;;;;;;;;;;;137804;1271;22412;-81
2024/03/12 12:19:59;;;;;;;;;;;;;;;;;;137817;1271;22973;-85
2024/03/12 12:23:00;;;;;;;;;;;;;;;;;;137798;1271;22365;-84
2024/03/12 12:26:05;;;;;;;;;;;;;;;;;;137758;1271;22770;-84
2024/03/12 12:29:06;;;;;;;;;;;;;;;;;;137784;1271;23183;-84
2024/03/12 12:32:07;;;;;;;;;;;;;;;;;;137737;1271;22277;-83
2024/03/12 12:35:11;;;;;;;;;;;;;;;;;;137760;1271;22272;-82
2024/03/12 12:38:13;;;;;;;;;;;;;;;;;;137759;1271;22479;-82
2024/03/12 12:41:16;;;;;;;;;;;;;;;;;;137809;1271;22379;-84
2024/03/12 12:44:20;;;;;;;;;;;;;;;;;;137839;1266;22303;-82
2024/03/12 12:47:22;;;;;;;;;;;;;;;;;;137829;1271;22332;-81
2024/03/12 12:50:26;;;;;;;;;;;;;;;;;;137768;1271;22611;-83
2024/03/12 12:53:27;;;;;;;;;;;;;;;;;;137774;1271;22575;-82
2024/03/12 12:56:30;;;;;;;;;;;;;;;;;;137749;1271;22515;-83
2024/03/12 12:59:32;;;;;;;;;;;;;;;;;;137489;1271;22566;-82
2024/03/12 13:02:33;;;;;;;;;;;;;;;;;;137808;1271;22419;-83
2024/03/12 13:05:36;;;;;;;;;;;;;;;;;;137786;1271;22305;-83
2024/03/12 13:08:37;;;;;;;;;;;;;;;;;;137779;1271;23060;-81
2024/03/12 13:11:39;;;;;;;;;;;;;;;;;;137691;1271;23148;-80
2024/03/12 13:14:41;;;;;;;;;;;;;;;;;;137710;1271;23063;-80
2024/03/12 13:17:42;;;;;;;;;;;;;;;;;;137719;1271;22322;-81
2024/03/12 13:20:43;;;;;;;;;;;;;;;;;;137709;1259;22322;-80
2024/03/12 13:23:45;;;;;;;;;;;;;;;;;;137733;1271;22333;-81
2024/03/12 13:26:46;;;;;;;;;;;;;;;;;;137740;1265;22309;-81
2024/03/12 13:29:47;;;;;;;;;;;;;;;;;;137698;1271;22298;-81
2024/03/12 13:32:48;;;;;;;;;;;;;;;;;;137723;1271;22335;-82
2024/03/12 13:35:50;;;;;;;;;;;;;;;;;;137630;1269;22296;-82
2024/03/12 13:38:53;;;;;;;;;;;;;;;;;;137723;1271;22397;-82
2024/03/12 13:41:54;;;;;;;;;;;;;;;;;;137728;1271;22323;-82
2024/03/12 13:44:55;;;;;;;;;;;;;;;;;;137728;1271;22297;-81
2024/03/12 13:47:57;;;;;;;;;;;;;;;;;;137707;1271;22289;-81
2024/03/12 13:50:58;;;;;;;;;;;;;;;;;;137804;1271;22667;-80
2024/03/12 13:54:00;;;;;;;;;;;;;;;;;;137723;1271;22412;-83
2024/03/12 13:57:02;;;;;;;;;;;;;;;;;;137759;1271;22312;-81
2024/03/12 14:00:08;;;;;;;;;;;;;;;;;;137835;1271;22803;-81
2024/03/12 14:03:10;;;;;;;;;;;;;;;;;;137850;1271;22704;-81
2024/03/12 14:06:12;;;;;;;;;;;;;;;;;;137766;1259;22454;-81
2024/03/12 14:09:14;;;;;;;;;;;;;;;;;;137619;1271;22560;-81
2024/03/12 14:12:15;;;;;;;;;;;;;;;;;;137744;1271;22545;-81
2024/03/12 14:15:17;;;;;;;;;;;;;;;;;;137805;1271;22361;-80
2024/03/12 14:18:21;;;;;;;;;;;;;;;;;;137875;1271;22327;-80
2024/03/12 14:21:22;;;;;;;;;;;;;;;;;;137713;1271;514952;-81
2024/03/12 14:24:23;;;;;;;;;;;;;;;;;;137936;1271;22349;-81
2024/03/12 14:27:25;;;;;;;;;;;;;;;;;;137852;1271;22268;-82
2024/03/12 14:30:26;;;;;;;;;;;;;;;;;;137784;1271;22285;-81
2024/03/12 14:33:27;;;;;;;;;;;;;;;;;;137877;1271;22282;-81
2024/03/12 14:36:29;;;;;;;;;;;;;;;;;;137756;1271;22409;-81
2024/03/12 14:39:30;;;;;;;;;;;;;;;;;;137780;1271;22275;-81
2024/03/12 14:42:31;;;;;;;;;;;;;;;;;;137744;1271;22298;-80
2024/03/12 14:45:32;;;;;;;;;;;;;;;;;;137773;1271;22347;-82
2024/03/12 14:48:34;;;;;;;;;;;;;;;;;;137728;1271;22268;-82
2024/03/12 14:51:35;;;;;;;;;;;;;;;;;;137757;1271;22320;-82
2024/03/12 14:54:36;;;;;;;;;;;;;;;;;;137781;1271;22299;-82
2024/03/12 14:57:37;;;;;;;;;;;;;;;;;;137791;1271;22408;-82
2024/03/12 15:00:39;;;;;;;;;;;;;;;;;;137790;1266;22328;-82
2024/03/12 15:03:40;;;;;;;;;;;;;;;;;;137817;1271;22401;-82
2024/03/12 15:06:43;;;;;;;;;;;;;;;;;;137759;1259;22522;-82
2024/03/12 15:09:44;;;;;;;;;;;;;;;;;;137625;1271;22603;-82
2024/03/12 15:12:45;;;;;;;;;;;;;;;;;;137790;1271;22472;-81
2024/03/12 15:15:46;;;;;;;;;;;;;;;;;;137829;1271;22302;-80
2024/03/12 15:18:48;;;;;;;;;;;;;;;;;;137752;1271;22354;-80
2024/03/12 15:21:49;;;;;;;;;;;;;;;;;;137783;1271;22344;-82
2024/03/12 15:24:51;;;;;;;;;;;;;;;;;;137768;1271;22307;-80
2024/03/12 15:27:52;;;;;;;;;;;;;;;;;;137784;1271;22367;-80
2024/03/12 15:30:54;;;;;;;;;;;;;;;;;;137601;1263;22417;-81
2024/03/12 15:33:57;;;;;;;;;;;;;;;;;;137786;1271;22362;-81
2024/03/12 15:36:58;;;;;;;;;;;;;;;;;;137813;1271;22454;-82
2024/03/12 15:40:00;;;;;;;;;;;;;;;;;;137812;1271;22276;-81
2024/03/12 15:43:01;;;;;;;;;;;;;;;;;;137798;1271;22339;-80
2024/03/12 15:46:02;;;;;;;;;;;;;;;;;;137777;1271;22322;-82
2024/03/12 15:49:04;;;;;;;;;;;;;;;;;;137812;1270;22471;-81
2024/03/12 15:52:05;;;;;;;;;;;;;;;;;;137838;1271;22803;-82
2024/03/12 15:55:07;;;;;;;;;;;;;;;;;;137880;1266;22279;-78
2024/03/12 15:58:10;;;;;;;;;;;;;;;;;;137884;1271;22331;-81
2024/03/12 16:01:13;;;;;;;;;;;;;;;;;;137865;1271;22542;-81
2024/03/12 16:04:14;;;;;;;;;;;;;;;;;;137898;1271;22281;-82
2024/03/12 16:07:15;;;;;;;;;;;;;;;;;;137861;1271;22398;-81
2024/03/12 16:10:16;;;;;;;;;;;;;;;;;;137854;1270;22404;-81
2024/03/12 16:13:17;;;;;;;;;;;;;;;;;;137905;1271;22512;-82
2024/03/12 16:16:18;;;;;;;;;;;;;;;;;;137873;1271;22341;-81
2024/03/12 16:19:21;;;;;;;;;;;;;;;;;;137802;1270;22288;-82
2024/03/12 16:22:22;;;;;;;;;;;;;;;;;;137823;1270;23014;-81
2024/03/12 16:25:23;;;;;;;;;;;;;;;;;;137840;1270;22341;-81
2024/03/12 16:28:24;;;;;;;;;;;;;;;;;;137873;1270;22860;-81
2024/03/12 16:31:26;;;;;;;;;;;;;;;;;;137870;1270;22333;-81
2024/03/12 16:34:27;;;;;;;;;;;;;;;;;;137891;1270;22274;-77
2024/03/12 16:37:28;;;;;;;;;;;;;;;;;;137882;1270;22377;-82
2024/03/12 16:40:29;;;;;;;;;;;;;;;;;;137860;1270;22300;-81
2024/03/12 16:43:30;;;;;;;;;;;;;;;;;;137905;1271;22402;-81
2024/03/12 16:46:34;;;;;;;;;;;;;;;;;;137939;1270;22264;-81
2024/03/12 16:49:37;;;;;;;;;;;;;;;;;;137818;1270;22507;-81
2024/03/12 16:52:38;;;;;;;;;;;;;;;;;;137849;1269;22965;-81
2024/03/12 16:55:39;;;;;;;;;;;;;;;;;;137712;1270;22516;-82
2024/03/12 16:58:41;;;;;;;;;;;;;;;;;;137850;1271;22285;-82
2024/03/12 17:01:43;;;;;;;;;;;;;;;;;;137889;1271;22268;-82
2024/03/12 17:04:44;;;;;;;;;;;;;;;;;;137881;1271;22291;-82
2024/03/12 17:07:46;;;;;;;;;;;;;;;;;;137863;1271;22367;-82
2024/03/12 17:10:47;;;;;;;;;;;;;;;;;;137873;1266;22286;-82
2024/03/12 17:13:49;;;;;;;;;;;;;;;;;;137817;1270;22508;-81
2024/03/12 17:16:51;;;;;;;;;;;;;;;;;;137761;1270;22522;-78
2024/03/12 17:19:52;;;;;;;;;;;;;;;;;;137668;1270;22570;-78
2024/03/12 17:22:53;;;;;;;;;;;;;;;;;;137866;1270;22799;-83
2024/03/12 17:25:55;;;;;;;;;;;;;;;;;;137896;1271;22428;-83
2024/03/12 17:28:57;;;;;;;;;;;;;;;;;;137841;1270;22489;-80
2024/03/12 17:31:59;;;;;;;;;;;;;;;;;;137902;1270;22797;-79
2024/03/12 17:35:00;;;;;;;;;;;;;;;;;;137938;1271;22271;-80
2024/03/12 17:38:04;;;;;;;;;;;;;;;;;;137310;1270;22574;-79
2024/03/12 17:41:06;;;;;;;;;;;;;;;;;;137772;1270;22473;-79
2024/03/12 17:44:07;;;;;;;;;;;;;;;;;;137858;1271;22989;-79
2024/03/12 17:47:08;;;;;;;;;;;;;;;;;;138022;1271;22553;-82
2024/03/12 17:50:10;;;;;;;;;;;;;;;;;;137696;1270;22562;-82
2024/03/12 17:53:11;;;;;;;;;;;;;;;;;;137790;1270;23136;-81
2024/03/12 17:56:12;;;;;;;;;;;;;;;;;;137856;1271;22858;-82
2024/03/12 17:59:14;;;;;;;;;;;;;;;;;;137909;1271;22596;-80
2024/03/12 18:02:16;;;;;;;;;;;;;;;;;;137758;1270;22515;-78
2024/03/12 18:05:17;;;;;;;;;;;;;;;;;;137826;1271;22520;-79
2024/03/12 18:08:18;;;;;;;;;;;;;;;;;;137887;1270;22463;-80
2024/03/12 18:11:20;;;;;;;;;;;;;;;;;;137780;1271;22516;-80
2024/03/12 18:14:21;;;;;;;;;;;;;;;;;;137767;1270;22503;-80
2024/03/12 18:17:23;;;;;;;;;;;;;;;;;;137813;1270;22494;-81
2024/03/12 18:20:29;;;;;;;;;;;;;;;;;;137824;1270;22895;-79
2024/03/12 18:23:30;;;;;;;;;;;;;;;;;;137866;1270;22327;-80
2024/03/12 18:26:32;;;;;;;;;;;;;;;;;;137862;1270;22771;-80
2024/03/12 18:29:34;;;;;;;;;;;;;;;;;;137794;1270;22432;-80
2024/03/12 18:32:37;;;;;;;;;;;;;;;;;;137870;1270;22280;-80
2024/03/12 18:35:38;;;;;;;;;;;;;;;;;;137827;1271;22318;-77
2024/03/12 18:38:40;;;;;;;;;;;;;;;;;;137848;1272;22907;-80
2024/03/12 18:41:41;;;;;;;;;;;;;;;;;;137844;1271;22288;-80
2024/03/12 18:44:42;;;;;;;;;;;;;;;;;;137804;1271;22871;-80
2024/03/12 18:47:46;;;;;;;;;;;;;;;;;;137817;1270;23048;-79
2024/03/12 18:50:49;;;;;;;;;;;;;;;;;;137831;1270;22509;-80
2024/03/12 18:53:50;;;;;;;;;;;;;;;;;;137822;1270;22879;-78
2024/03/12 18:56:51;;;;;;;;;;;;;;;;;;137758;1270;22553;-79
2024/03/12 18:59:52;;;;;;;;;;;;;;;;;;137823;1271;22417;-78
2024/03/12 19:02:53;;;;;;;;;;;;;;;;;;137900;1270;22331;-77
2024/03/12 19:05:54;;;;;;;;;;;;;;;;;;137855;1270;22339;-77
2024/03/12 19:08:55;;;;;;;;;;;;;;;;;;137882;1270;22381;-77
2024/03/12 19:11:57;;;;;;;;;;;;;;;;;;137888;1271;22344;-77
2024/03/12 19:14:58;;;;;;;;;;;;;;;;;;137780;1270;22509;-78
2024/03/12 19:17:59;;;;;;;;;;;;;;;;;;137848;1270;22273;-78
2024/03/12 19:21:01;;;;;;;;;;;;;;;;;;137890;1271;22288;-78
2024/03/12 19:24:04;;;;;;;;;;;;;;;;;;137837;1271;22315;-78
2024/03/12 19:27:05;;;;;;;;;;;;;;;;;;137837;1270;22260;-78
2024/03/12 19:30:07;;;;;;;;;;;;;;;;;;137779;1271;22500;-78
2024/03/12 19:33:08;;;;;;;;;;;;;;;;;;137813;1270;22496;-78
2024/03/12 19:36:14;;;;;;;;;;;;;;;;;;137754;1271;22551;-78
2024/03/12 19:39:15;;;;;;;;;;;;;;;;;;137785;1271;22552;-78
2024/03/12 19:42:17;;;;;;;;;;;;;;;;;;137804;1270;22494;-77
2024/03/12 19:45:18;;;;;;;;;;;;;;;;;;137714;1270;22506;-77
2024/03/12 19:48:20;;;;;;;;;;;;;;;;;;137785;1270;22521;-78
2024/03/12 19:51:22;;;;;;;;;;;;;;;;;;137785;1270;22553;-77
2024/03/12 19:54:23;;;;;;;;;;;;;;;;;;137845;1270;22469;-77
2024/03/12 19:57:24;;;;;;;;;;;;;;;;;;137767;1271;22502;-77
2024/03/12 20:00:26;;;;;;;;;;;;;;;;;;137804;1270;22342;-78
2024/03/12 20:03:27;;;;;;;;;;;;;;;;;;137844;1270;22317;-78
2024/03/12 20:06:29;;;;;;;;;;;;;;;;;;137826;1270;22461;-77
2024/03/12 20:09:32;;;;;;;;;;;;;;;;;;137804;1270;22281;-77
2024/03/12 20:12:34;;;;;;;;;;;;;;;;;;137832;1270;22314;-77
2024/03/12 20:15:37;;;;;;;;;;;;;;;;;;137888;1270;22326;-77
2024/03/12 20:18:41;;;;;;;;;;;;;;;;;;137820;1271;22291;-77
2024/03/12 20:21:44;;;;;;;;;;;;;;;;;;137868;1270;22306;-78
2024/03/12 20:24:45;;;;;;;;;;;;;;;;;;137888;1270;22318;-77
2024/03/12 20:27:51;;;;;;;;;;;;;;;;;;137847;1271;22512;-78
2024/03/12 20:30:52;;;;;;;;;;;;;;;;;;137820;1267;22655;-78
2024/03/12 20:33:54;;;;;;;;;;;;;;;;;;137769;1271;22539;-77
2024/03/12 20:36:55;;;;;;;;;;;;;;;;;;137797;1271;22935;-78
2024/03/12 20:39:56;;;;;;;;;;;;;;;;;;137793;1270;22587;-77
2024/03/12 20:42:59;;;;;;;;;;;;;;;;;;137875;1271;22500;-77
2024/03/12 20:46:00;;;;;;;;;;;;;;;;;;137792;1270;22909;-77
2024/03/12 20:49:01;;;;;;;;;;;;;;;;;;137833;1270;22877;-77
2024/03/12 20:52:04;;;;;;;;;;;;;;;;;;137829;1270;22335;-78
2024/03/12 20:55:05;;;;;;;;;;;;;;;;;;137800;1271;22510;-77
2024/03/12 20:58:06;;;;;;;;;;;;;;;;;;137773;1270;22498;-78
2024/03/12 21:01:08;;;;;;;;;;;;;;;;;;137763;1270;23002;-77